Time;durP1;ratioP1;P1;durP2;ratioP2;P2;SDS_P1;SDS_P2;PMS_P1;PMS_P2;Temp;Humidity;BMP_temperature;BMP_pressure;BME280_temperature;BME280_humidity;BME280_pressure;Samples;Min_cycle;Max_cycle;Signal;HPM_P1;HPM_P2
2023/03/23 00:00:55;;;;;;;3.83;3.43;;;9.50;99.90;;;;;;5053730;28;20475;-55
2023/03/23 00:03:22;;;;;;;4.13;3.77;;;9.50;99.90;;;;;;5053621;28;20884;-55
2023/03/23 00:05:50;;;;;;;4.10;3.20;;;9.40;99.90;;;;;;5053705;28;20474;-55
2023/03/23 00:08:20;;;;;;;4.90;3.70;;;9.40;99.90;;;;;;5054079;28;20458;-55
2023/03/23 00:10:52;;;;;;;4.17;3.87;;;9.40;99.90;;;;;;5052814;28;20545;-55
2023/03/23 00:13:19;;;;;;;5.43;4.27;;;9.20;99.90;;;;;;5042942;28;20442;-55
2023/03/23 00:15:48;;;;;;;5.20;3.80;;;9.10;99.90;;;;;;5033494;28;20497;-55
2023/03/23 00:18:21;;;;;;;4.63;3.57;;;9.10;99.90;;;;;;5033958;28;20450;-55
2023/03/23 00:20:48;;;;;;;3.10;2.80;;;9.30;99.90;;;;;;5044461;28;20840;-55
2023/03/23 00:23:18;;;;;;;3.80;3.40;;;9.30;99.90;;;;;;5052642;28;20536;-55
2023/03/23 00:25:48;;;;;;;4.87;3.60;;;9.30;99.90;;;;;;5053357;28;20794;-55
2023/03/23 00:28:16;;;;;;;3.83;3.53;;;9.40;99.90;;;;;;5053295;28;20448;-55
2023/03/23 00:30:44;;;;;;;3.53;3.13;;;9.30;99.90;;;;;;5053106;28;20895;-55
2023/03/23 00:33:13;;;;;;;4.77;3.20;;;8.90;99.90;;;;;;5052920;28;20471;-55
2023/03/23 00:35:41;;;;;;;5.17;3.23;;;8.80;99.90;;;;;;5052637;28;20446;-55
2023/03/23 00:38:08;;;;;;;3.83;3.20;;;8.90;99.90;;;;;;5052235;28;20520;-56
2023/03/23 00:40:36;;;;;;;5.20;3.20;;;9.00;99.90;;;;;;5049838;28;20572;-55
2023/03/23 00:43:05;;;;;;;4.90;3.63;;;8.90;99.90;;;;;;5052604;28;20442;-55
2023/03/23 00:45:34;;;;;;;5.20;4.17;;;9.10;99.90;;;;;;5052573;28;20474;-55
2023/03/23 00:48:04;;;;;;;3.80;3.50;;;8.90;99.90;;;;;;5052602;28;20467;-55
2023/03/23 00:50:31;;;;;;;4.73;3.30;;;8.70;99.90;;;;;;5052693;28;20435;-55
2023/03/23 00:52:58;;;;;;;7.97;3.70;;;8.70;99.90;;;;;;5051986;28;20557;-55
2023/03/23 00:55:25;;;;;;;3.83;3.43;;;8.90;99.90;;;;;;5052433;28;20481;-55
2023/03/23 00:57:53;;;;;;;5.80;4.53;;;9.00;99.90;;;;;;5052126;28;20505;-55
2023/03/23 01:00:23;;;;;;;5.73;4.10;;;9.00;99.90;;;;;;5051980;28;20983;-55
2023/03/23 01:02:51;;;;;;;4.37;3.70;;;8.80;99.90;;;;;;5052214;28;20451;-55
2023/03/23 01:05:19;;;;;;;3.87;3.47;;;8.90;99.90;;;;;;5052732;28;20444;-55
2023/03/23 01:07:46;;;;;;;3.80;3.20;;;8.90;99.90;;;;;;5052333;28;20893;-55
2023/03/23 01:10:15;;;;;;;3.83;3.37;;;8.80;99.90;;;;;;5052131;28;20937;-55
2023/03/23 01:12:43;;;;;;;4.47;4.07;;;8.80;99.90;;;;;;5032318;28;20490;-56
2023/03/23 01:15:14;;;;;;;5.70;3.90;;;8.70;99.90;;;;;;5032854;28;20472;-55
2023/03/23 01:17:42;;;;;;;4.27;3.20;;;8.90;99.90;;;;;;5032437;28;20474;-55
2023/03/23 01:20:10;;;;;;;5.10;4.70;;;8.90;99.90;;;;;;5032300;28;20930;-55
2023/03/23 01:22:37;;;;;;;5.27;3.90;;;9.00;99.90;;;;;;5032113;28;20436;-55
2023/03/23 01:25:05;;;;;;;4.27;3.60;;;9.00;99.90;;;;;;5038979;28;20478;-55
2023/03/23 01:27:32;;;;;;;3.30;3.00;;;9.00;99.90;;;;;;5051825;28;20919;-56
2023/03/23 01:29:59;;;;;;;4.13;3.57;;;9.20;99.90;;;;;;5051837;28;20550;-55
2023/03/23 01:32:26;;;;;;;5.27;3.60;;;8.70;99.90;;;;;;5051786;28;20446;-55
2023/03/23 01:34:54;;;;;;;3.40;3.10;;;8.40;99.90;;;;;;5051671;28;20474;-55
2023/03/23 01:37:25;;;;;;;4.80;3.80;;;8.60;99.90;;;;;;5076268;22;20528;-86
2023/03/23 01:39:53;;;;;;;4.60;3.87;;;8.40;99.90;;;;;;5053065;28;20489;-86
2023/03/23 01:42:22;;;;;;;4.30;3.90;;;8.40;99.90;;;;;;5054253;28;21022;-86
2023/03/23 01:45:26;;;;;;;5.87;3.50;;;8.40;99.90;;;;;;5053942;28;20481;-86
2023/03/23 01:47:58;;;;;;;3.93;3.47;;;8.50;99.90;;;;;;5053291;28;20452;-86
2023/03/23 01:50:29;;;;;;;3.60;3.23;;;8.50;99.90;;;;;;5053340;28;20481;-86
2023/03/23 01:52:58;;;;;;;8.30;3.80;;;8.30;99.90;;;;;;5053716;28;20478;-86
2023/03/23 01:55:27;;;;;;;4.13;3.67;;;8.40;99.90;;;;;;5054143;28;20810;-86
2023/03/23 01:57:56;;;;;;;4.30;3.30;;;8.50;99.90;;;;;;5053807;28;20495;-86
2023/03/23 02:00:24;;;;;;;4.80;3.50;;;8.50;99.90;;;;;;5052114;28;20516;-86
2023/03/23 02:02:53;;;;;;;4.80;4.30;;;8.30;99.90;;;;;;5051787;28;20442;-85
2023/03/23 02:05:28;;;;;;;5.03;4.03;;;8.20;99.90;;;;;;5052961;28;20426;-86
2023/03/23 02:08:02;;;;;;;5.93;4.47;;;8.10;99.90;;;;;;5053318;28;20532;-85
2023/03/23 02:10:30;;;;;;;5.17;4.00;;;8.00;99.90;;;;;;5053763;28;20489;-85
2023/03/23 02:12:57;;;;;;;4.40;4.00;;;8.20;99.90;;;;;;5054684;28;20446;-86
2023/03/23 02:15:27;;;;;;;4.37;3.73;;;8.20;99.90;;;;;;5055251;28;20476;-86
2023/03/23 02:18:00;;;;;;;3.60;3.30;;;8.40;99.90;;;;;;5053551;28;20488;-85
2023/03/23 02:20:55;;;;;;;3.93;3.23;;;8.40;99.90;;;;;;5055163;28;20477;-86
2023/03/23 02:23:52;;;;;;;4.33;3.93;;;8.30;99.90;;;;;;5052033;28;20456;-86
2023/03/23 02:26:31;;;;;;;3.80;3.47;;;8.30;99.90;;;;;;5052592;28;20496;-85
2023/03/23 02:29:24;;;;;;;5.67;3.67;;;8.20;99.90;;;;;;5052336;28;20466;-86
2023/03/23 02:32:06;;;;;;;4.13;3.20;;;8.20;99.90;;;;;;5050992;28;20450;-86
2023/03/23 02:34:42;;;;;;;4.63;3.80;;;8.30;99.90;;;;;;5052461;28;20450;-85
2023/03/23 02:37:13;;;;;;;4.43;3.30;;;8.40;99.90;;;;;;5057205;28;20481;-84
2023/03/23 02:39:46;;;;;;;4.17;3.77;;;8.50;99.90;;;;;;5057806;28;20489;-85
2023/03/23 02:42:16;;;;;;;8.93;4.40;;;8.10;99.90;;;;;;5054582;28;20437;-86
2023/03/23 02:44:46;;;;;;;6.40;4.73;;;8.00;99.90;;;;;;5055156;28;20499;-86
2023/03/23 02:47:16;;;;;;;6.67;6.07;;;8.10;99.90;;;;;;5054766;28;20442;-86
2023/03/23 02:49:49;;;;;;;5.30;4.27;;;8.10;99.90;;;;;;5054214;28;21032;-86
2023/03/23 02:52:20;;;;;;;4.77;4.37;;;8.20;99.90;;;;;;5053495;28;20437;-86
2023/03/23 02:54:50;;;;;;;5.07;4.10;;;7.90;99.90;;;;;;5055364;28;20433;-86
2023/03/23 02:57:18;;;;;;;3.83;3.53;;;7.90;99.90;;;;;;5056160;28;20442;-86
2023/03/23 02:59:46;;;;;;;5.00;4.20;;;8.00;99.90;;;;;;5054520;28;20508;-86
2023/03/23 03:02:15;;;;;;;4.30;3.90;;;8.10;99.90;;;;;;5053782;28;20483;-86
2023/03/23 03:04:45;;;;;;;5.10;4.50;;;8.20;99.90;;;;;;5053037;28;20499;-86
2023/03/23 03:07:31;;;;;;;4.57;4.17;;;8.20;99.90;;;;;;5054490;28;21076;-85
2023/03/23 03:10:02;;;;;;;12.87;9.10;;;7.70;99.90;;;;;;5058660;28;20544;-86
2023/03/23 03:12:37;;;;;;;7.03;5.03;;;7.40;99.90;;;;;;5058981;28;20442;-86
2023/03/23 03:15:14;;;;;;;5.83;4.47;;;7.90;99.90;;;;;;5057970;28;20499;-86
2023/03/23 03:17:45;;;;;;;4.63;3.87;;;8.10;99.90;;;;;;5056088;28;20463;-86
2023/03/23 03:20:15;;;;;;;3.77;3.37;;;8.10;99.90;;;;;;5056211;28;20462;-86
2023/03/23 03:22:47;;;;;;;4.47;4.07;;;8.00;99.90;;;;;;5056667;28;20469;-86
2023/03/23 03:25:16;;;;;;;6.93;4.50;;;7.90;99.90;;;;;;5056751;28;20529;-86
2023/03/23 03:27:49;;;;;;;7.23;4.57;;;7.40;99.90;;;;;;5058417;28;20499;-85
2023/03/23 03:30:20;;;;;;;4.77;4.27;;;7.60;99.90;;;;;;5054372;28;20472;-86
2023/03/23 03:32:50;;;;;;;4.27;3.80;;;7.80;99.90;;;;;;5054765;28;20534;-86
2023/03/23 03:35:18;;;;;;;6.03;4.33;;;7.90;99.90;;;;;;5054631;28;20445;-85
2023/03/23 03:37:47;;;;;;;11.07;4.63;;;8.00;99.90;;;;;;5053779;28;20707;-86
2023/03/23 03:40:16;;;;;;;5.30;4.80;;;7.90;99.90;;;;;;5054823;28;20492;-85
2023/03/23 03:42:45;;;;;;;4.90;4.23;;;7.80;99.90;;;;;;5055079;28;20433;-85
2023/03/23 03:45:14;;;;;;;6.07;5.47;;;7.90;99.90;;;;;;5054032;28;20982;-86
2023/03/23 03:47:41;;;;;;;6.63;4.20;;;8.00;99.90;;;;;;5038790;28;20868;-86
2023/03/23 03:50:09;;;;;;;4.60;3.70;;;8.20;99.90;;;;;;5037172;28;20505;-86
2023/03/23 03:52:38;;;;;;;6.60;4.13;;;8.20;99.90;;;;;;5051896;28;20446;-85
2023/03/23 03:55:07;;;;;;;5.27;4.60;;;7.80;99.90;;;;;;5061407;28;20478;-86
2023/03/23 03:57:35;;;;;;;4.97;3.80;;;7.50;99.90;;;;;;5061776;28;20433;-86
2023/03/23 04:00:12;;;;;;;8.30;5.23;;;7.70;99.90;;;;;;5060979;28;20469;-86
2023/03/23 04:02:40;;;;;;;4.33;3.93;;;7.70;99.90;;;;;;5059586;28;20445;-85
2023/03/23 04:05:08;;;;;;;5.10;4.20;;;8.00;99.90;;;;;;5058655;28;20449;-85
2023/03/23 04:07:37;;;;;;;6.37;4.57;;;7.90;99.90;;;;;;5058855;28;20499;-85
2023/03/23 04:10:08;;;;;;;4.17;3.77;;;7.70;99.90;;;;;;5060017;28;20878;-86
2023/03/23 04:12:35;;;;;;;5.03;4.53;;;7.60;99.90;;;;;;5058669;28;20499;-86
2023/03/23 04:15:02;;;;;;;5.67;4.70;;;7.60;99.90;;;;;;5058872;28;20455;-85
2023/03/23 04:17:29;;;;;;;4.20;3.80;;;7.60;99.90;;;;;;5066557;28;20446;-84
2023/03/23 04:19:58;;;;;;;6.20;5.60;;;7.70;99.90;;;;;;5063607;28;20871;-85
2023/03/23 04:22:29;;;;;;;5.37;4.87;;;7.20;99.90;;;;;;5057257;28;20473;-85
2023/03/23 04:24:58;;;;;;;4.60;4.20;;;7.00;99.90;;;;;;5044207;28;20939;-86
2023/03/23 04:27:27;;;;;;;4.03;3.63;;;7.00;99.90;;;;;;5051906;28;20473;-85
2023/03/23 04:29:56;;;;;;;5.37;4.87;;;7.30;99.90;;;;;;5041513;28;20462;-85
2023/03/23 04:32:24;;;;;;;4.83;4.20;;;7.50;99.90;;;;;;5059753;28;20450;-85
2023/03/23 04:34:51;;;;;;;5.30;4.60;;;7.60;99.90;;;;;;5058211;28;20485;-85
2023/03/23 04:37:18;;;;;;;5.07;4.57;;;7.80;99.90;;;;;;5058379;28;20484;-85
2023/03/23 04:39:46;;;;;;;5.57;4.23;;;7.70;99.90;;;;;;5059574;28;20466;-84
2023/03/23 04:42:14;;;;;;;5.23;4.07;;;7.70;99.90;;;;;;5057111;28;20493;-84
2023/03/23 04:44:43;;;;;;;4.20;3.73;;;7.60;99.90;;;;;;5058341;28;20509;-87
2023/03/23 04:47:10;;;;;;;5.03;4.23;;;7.70;99.90;;;;;;5060954;28;20437;-86
2023/03/23 04:49:37;;;;;;;4.43;4.03;;;7.90;99.90;;;;;;5060968;28;20469;-85
2023/03/23 04:52:05;;;;;;;6.47;4.07;;;7.70;99.90;;;;;;5060639;28;20477;-85
2023/03/23 04:54:32;;;;;;;4.30;3.90;;;7.80;99.90;;;;;;5061011;28;20515;-85
2023/03/23 04:56:59;;;;;;;4.67;4.27;;;7.80;99.90;;;;;;5060084;28;20489;-85
2023/03/23 04:59:27;;;;;;;6.77;4.90;;;7.90;99.90;;;;;;5056946;28;20465;-85
2023/03/23 05:01:56;;;;;;;6.27;5.30;;;7.60;99.90;;;;;;5061071;28;20520;-87
2023/03/23 05:04:24;;;;;;;5.60;4.70;;;6.70;99.90;;;;;;5064858;28;20441;-87
2023/03/23 05:06:52;;;;;;;7.23;4.90;;;6.90;99.90;;;;;;5061453;28;20442;-85
2023/03/23 05:09:20;;;;;;;4.23;3.90;;;7.20;99.90;;;;;;5061274;28;20869;-86
2023/03/23 05:11:47;;;;;;;5.77;4.73;;;7.40;99.90;;;;;;5061515;28;20441;-85
2023/03/23 05:14:14;;;;;;;4.70;4.20;;;7.60;99.90;;;;;;5059920;28;20457;-85
2023/03/23 05:16:40;;;;;;;4.90;4.30;;;7.60;99.90;;;;;;5060266;28;20946;-85
2023/03/23 05:19:09;;;;;;;5.77;4.67;;;7.50;99.90;;;;;;5060063;28;20970;-85
2023/03/23 05:21:36;;;;;;;5.50;5.00;;;7.60;99.90;;;;;;5060886;28;20492;-85
2023/03/23 05:24:04;;;;;;;7.10;5.10;;;7.80;99.90;;;;;;5060445;28;20442;-85
2023/03/23 05:26:32;;;;;;;5.50;4.93;;;7.50;99.90;;;;;;5056286;28;20485;-85
2023/03/23 05:28:59;;;;;;;5.07;4.40;;;7.30;99.90;;;;;;5061705;28;20465;-85
2023/03/23 05:31:26;;;;;;;4.67;4.27;;;7.60;99.90;;;;;;5060432;28;20800;-85
2023/03/23 05:33:53;;;;;;;8.00;4.90;;;7.70;99.90;;;;;;5040659;28;20483;-84
2023/03/23 05:36:22;;;;;;;8.40;5.77;;;7.50;99.90;;;;;;5041710;28;20450;-88
2023/03/23 05:38:49;;;;;;;5.87;4.77;;;7.60;99.90;;;;;;5047165;28;20465;-87
2023/03/23 05:41:16;;;;;;;5.70;5.20;;;7.60;99.90;;;;;;5055977;28;20473;-86
2023/03/23 05:43:44;;;;;;;6.10;4.60;;;7.20;99.90;;;;;;5052566;28;20498;-87
2023/03/23 05:46:10;;;;;;;4.63;4.10;;;7.40;99.90;;;;;;5054343;28;20441;-87
2023/03/23 05:48:38;;;;;;;5.10;4.53;;;7.70;99.90;;;;;;5052538;28;20922;-86
2023/03/23 05:51:05;;;;;;;6.00;5.40;;;7.80;99.90;;;;;;5036833;28;20878;-87
2023/03/23 05:53:35;;;;;;;10.67;7.67;;;7.60;99.90;;;;;;5047818;28;20953;-86
2023/03/23 05:56:03;;;;;;;8.27;7.23;;;7.40;99.90;;;;;;5052994;28;20454;-85
2023/03/23 05:58:31;;;;;;;7.77;6.90;;;6.70;99.90;;;;;;5055707;28;20453;-86
2023/03/23 06:00:58;;;;;;;6.33;5.60;;;6.50;99.90;;;;;;5052563;28;20434;-86
2023/03/23 06:03:25;;;;;;;5.80;5.30;;;6.80;99.90;;;;;;5053591;28;20500;-86
2023/03/23 06:05:52;;;;;;;5.83;5.23;;;7.00;99.90;;;;;;5049444;28;20511;-86
2023/03/23 06:08:19;;;;;;;4.60;4.27;;;7.40;99.90;;;;;;5037786;28;20518;-87
2023/03/23 06:10:48;;;;;;;6.20;5.60;;;7.60;99.90;;;;;;5052551;28;20469;-87
2023/03/23 06:13:14;;;;;;;7.83;5.93;;;7.70;99.90;;;;;;5055159;28;20517;-87
2023/03/23 06:15:42;;;;;;;7.73;5.40;;;7.70;99.90;;;;;;5051376;28;20435;-88
2023/03/23 06:18:09;;;;;;;8.77;7.87;;;7.00;99.90;;;;;;5066697;28;20453;-86
2023/03/23 06:20:37;;;;;;;8.50;7.00;;;6.50;99.90;;;;;;5068101;28;20465;-87
2023/03/23 06:23:04;;;;;;;11.60;7.77;;;6.10;99.90;;;;;;5064854;28;20489;-86
2023/03/23 06:25:32;;;;;;;11.03;9.80;;;6.20;99.90;;;;;;5067888;28;20440;-86
2023/03/23 06:28:00;;;;;;;7.03;6.33;;;6.50;99.90;;;;;;5067591;28;20464;-86
2023/03/23 06:30:28;;;;;;;6.37;5.27;;;7.00;99.90;;;;;;5064624;28;20461;-88
2023/03/23 06:32:55;;;;;;;5.90;5.40;;;7.30;99.90;;;;;;5059229;28;20477;-85
2023/03/23 06:35:22;;;;;;;6.60;5.57;;;7.70;99.90;;;;;;5056641;28;20504;-83
2023/03/23 06:37:50;;;;;;;8.83;5.10;;;7.80;99.90;;;;;;5054607;28;20504;-83
2023/03/23 06:40:18;;;;;;;6.27;5.67;;;7.90;99.90;;;;;;5054126;28;20465;-83
2023/03/23 06:42:45;;;;;;;10.03;5.40;;;7.90;99.90;;;;;;5052439;28;20477;-85
2023/03/23 06:45:14;;;;;;;6.17;5.00;;;8.10;99.90;;;;;;5052269;28;20450;-83
2023/03/23 06:47:40;;;;;;;9.00;5.20;;;8.20;99.90;;;;;;5052933;28;20457;-84
2023/03/23 06:50:08;;;;;;;7.37;5.00;;;8.20;99.90;;;;;;5054679;28;21005;-83
2023/03/23 06:52:35;;;;;;;7.17;5.40;;;8.20;99.90;;;;;;5052158;28;20461;-83
2023/03/23 06:55:02;;;;;;;5.97;5.37;;;8.30;99.90;;;;;;5052421;28;20512;-83
2023/03/23 06:57:29;;;;;;;9.40;6.17;;;8.50;99.90;;;;;;5050317;28;20473;-83
2023/03/23 06:59:56;;;;;;;6.80;5.17;;;8.40;99.90;;;;;;5051981;28;20460;-81
2023/03/23 07:02:25;;;;;;;4.57;4.20;;;8.50;99.90;;;;;;5052072;28;20481;-83
2023/03/23 07:04:53;;;;;;;6.13;5.53;;;8.50;99.90;;;;;;5051636;28;20468;-83
2023/03/23 07:07:21;;;;;;;9.47;7.57;;;8.70;99.90;;;;;;5051733;28;20979;-83
2023/03/23 07:09:48;;;;;;;10.80;8.60;;;8.70;99.90;;;;;;5052232;28;20466;-82
2023/03/23 07:12:15;;;;;;;9.43;8.20;;;8.60;99.90;;;;;;5051251;28;20437;-82
2023/03/23 07:14:42;;;;;;;9.77;8.57;;;8.60;99.90;;;;;;5051458;28;20447;-82
2023/03/23 07:17:09;;;;;;;9.67;8.27;;;8.60;99.90;;;;;;5051338;28;20531;-83
2023/03/23 07:19:37;;;;;;;10.53;7.30;;;8.50;99.90;;;;;;5048002;28;20547;-84
2023/03/23 07:22:05;;;;;;;11.23;7.73;;;8.80;99.90;;;;;;5039284;28;20506;-84
2023/03/23 07:24:32;;;;;;;8.40;7.40;;;8.80;99.90;;;;;;5033986;28;20480;-83
2023/03/23 07:26:59;;;;;;;6.17;5.67;;;8.80;99.90;;;;;;5033925;28;20480;-83
2023/03/23 07:29:26;;;;;;;7.40;5.83;;;9.00;99.90;;;;;;5035917;28;20913;-83
2023/03/23 07:31:54;;;;;;;16.23;8.00;;;9.10;99.90;;;;;;5044647;28;20495;-83
2023/03/23 07:34:21;;;;;;;8.83;7.27;;;9.20;99.90;;;;;;5059354;28;20450;-83
2023/03/23 07:36:49;;;;;;;9.70;7.00;;;9.20;99.90;;;;;;5069652;28;20689;-83
2023/03/23 07:39:16;;;;;;;9.57;7.20;;;8.90;99.90;;;;;;5057850;28;20485;-83
2023/03/23 07:41:43;;;;;;;8.77;6.97;;;8.90;99.90;;;;;;5051434;28;20589;-83
2023/03/23 07:44:10;;;;;;;7.73;6.37;;;9.00;99.90;;;;;;5051946;28;20997;-83
2023/03/23 07:46:38;;;;;;;8.50;6.63;;;9.20;99.90;;;;;;5052157;28;20442;-84
2023/03/23 07:49:05;;;;;;;11.70;7.70;;;9.40;99.90;;;;;;5051857;28;20479;-83
2023/03/23 07:51:33;;;;;;;7.77;7.07;;;9.50;99.90;;;;;;5042317;28;20503;-84
2023/03/23 07:54:02;;;;;;;9.60;8.00;;;9.60;99.90;;;;;;5040863;28;20470;-83
2023/03/23 07:56:29;;;;;;;8.80;7.13;;;9.60;99.90;;;;;;5040688;28;20504;-83
2023/03/23 07:58:56;;;;;;;9.80;7.40;;;9.40;99.90;;;;;;5041680;28;20559;-83
2023/03/23 08:01:23;;;;;;;8.73;7.87;;;9.30;99.90;;;;;;5042224;28;20470;-84
2023/03/23 08:03:51;;;;;;;8.47;7.60;;;9.20;99.90;;;;;;5040222;28;20924;-84
2023/03/23 08:06:18;;;;;;;9.93;7.13;;;9.10;99.90;;;;;;5040265;28;20463;-84
2023/03/23 08:08:45;;;;;;;7.00;6.40;;;9.20;99.90;;;;;;5042401;28;20873;-84
2023/03/23 08:11:15;;;;;;;8.30;6.13;;;9.20;99.90;;;;;;5046190;28;20453;-84
2023/03/23 08:13:42;;;;;;;7.30;5.90;;;9.30;99.90;;;;;;5041936;28;20746;-83
2023/03/23 08:16:09;;;;;;;6.73;6.03;;;9.30;99.90;;;;;;5055561;28;20445;-80
2023/03/23 08:18:36;;;;;;;5.77;5.20;;;9.50;99.90;;;;;;5049122;28;20469;-83
2023/03/23 08:21:04;;;;;;;6.07;5.00;;;9.60;99.90;;;;;;5046313;28;20504;-82
2023/03/23 08:23:32;;;;;;;5.93;5.33;;;9.90;99.90;;;;;;5047762;28;20490;-82
2023/03/23 08:25:59;;;;;;;6.23;5.63;;;9.80;99.90;;;;;;5042318;28;20455;-82
2023/03/23 08:28:28;;;;;;;6.87;5.80;;;9.80;99.90;;;;;;5040818;28;20444;-82
2023/03/23 08:30:54;;;;;;;6.10;5.50;;;9.90;99.90;;;;;;5042327;28;20508;-81
2023/03/23 08:33:22;;;;;;;9.23;6.83;;;10.00;99.90;;;;;;5041583;28;20466;-84
2023/03/23 08:35:57;;;;;;;6.63;5.67;;;10.00;99.90;;;;;;5040708;28;20963;-81
2023/03/23 08:38:24;;;;;;;8.23;6.33;;;10.00;99.90;;;;;;5031375;28;20460;-81
2023/03/23 08:40:52;;;;;;;6.00;5.00;;;10.10;99.90;;;;;;5042324;28;21015;-81
2023/03/23 08:43:19;;;;;;;6.37;5.80;;;10.20;99.90;;;;;;5041049;28;20868;-82
2023/03/23 08:45:47;;;;;;;6.30;5.70;;;10.30;99.90;;;;;;5040091;28;20976;-81
2023/03/23 08:48:15;;;;;;;6.00;5.40;;;10.50;99.90;;;;;;5041821;28;20855;-82
2023/03/23 08:50:42;;;;;;;6.40;5.80;;;10.70;99.90;;;;;;5041033;28;20472;-81
2023/03/23 08:53:09;;;;;;;7.00;6.40;;;10.80;99.90;;;;;;5043728;28;20445;-81
2023/03/23 08:55:36;;;;;;;7.30;6.60;;;10.90;99.90;;;;;;5043596;28;20477;-80
2023/03/23 08:58:03;;;;;;;8.53;6.87;;;11.10;99.90;;;;;;5030667;28;20977;-80
2023/03/23 09:00:31;;;;;;;8.47;6.23;;;11.20;99.90;;;;;;5030542;28;20980;-81
2023/03/23 09:02:59;;;;;;;7.27;6.57;;;11.30;99.90;;;;;;5030993;28;20477;-89
2023/03/23 09:05:28;;;;;;;7.63;6.90;;;11.40;99.90;;;;;;5031698;28;20461;-85
2023/03/23 09:07:58;;;;;;;8.60;6.07;;;11.40;99.90;;;;;;5031157;28;20463;-88
2023/03/23 09:10:26;;;;;;;7.37;6.67;;;11.40;99.90;;;;;;5031233;28;20943;-88
2023/03/23 09:12:54;;;;;;;6.73;5.93;;;11.40;99.90;;;;;;5031593;28;20530;-88
2023/03/23 09:15:22;;;;;;;10.07;6.23;;;11.40;99.90;;;;;;5037328;28;20496;-87
2023/03/23 09:17:50;;;;;;;9.30;5.90;;;11.50;99.90;;;;;;5056215;28;20469;-87
2023/03/23 09:20:21;;;;;;;7.10;6.30;;;11.50;99.90;;;;;;5052539;28;20537;-88
2023/03/23 09:22:50;;;;;;;7.23;6.40;;;11.70;99.90;;;;;;5044791;28;20519;-88
2023/03/23 09:25:21;;;;;;;6.50;5.87;;;11.70;99.90;;;;;;5038137;28;20482;-88
2023/03/23 09:27:52;;;;;;;6.70;6.10;;;11.70;99.90;;;;;;5050220;28;20449;-88
2023/03/23 09:30:20;;;;;;;9.27;6.77;;;11.80;99.90;;;;;;5043326;28;20500;-89
2023/03/23 09:32:48;;;;;;;12.80;9.83;;;11.90;99.90;;;;;;5031039;28;20442;-88
2023/03/23 09:35:17;;;;;;;6.77;5.93;;;12.00;99.90;;;;;;5044661;28;20460;-88
2023/03/23 09:37:46;;;;;;;9.03;5.70;;;12.00;99.90;;;;;;5049652;28;20860;-88
2023/03/23 09:40:18;;;;;;;7.43;6.40;;;12.00;99.90;;;;;;5049940;28;20549;-89
2023/03/23 09:43:24;;;;;;;9.00;6.70;;;12.10;99.90;;;;;;5049734;28;20758;-88
2023/03/23 09:46:01;;;;;;;7.33;6.43;;;12.10;99.90;;;;;;5006018;28;21014;-88
2023/03/23 09:48:39;;;;;;;7.57;6.50;;;12.10;99.90;;;;;;5030927;28;20472;-88
2023/03/23 09:51:20;;;;;;;7.43;6.73;;;12.20;99.90;;;;;;5031338;28;20485;-88
2023/03/23 09:53:52;;;;;;;6.53;5.93;;;12.20;99.90;;;;;;5030102;28;20540;-88
2023/03/23 09:56:20;;;;;;;6.70;6.10;;;12.40;99.90;;;;;;5029775;28;20884;-88
2023/03/23 09:58:54;;;;;;;7.83;6.70;;;12.40;99.90;;;;;;5029893;28;20466;-88
2023/03/23 10:01:26;;;;;;;8.13;6.63;;;12.50;99.90;;;;;;5030250;28;20434;-88
2023/03/23 10:04:03;;;;;;;7.20;6.43;;;12.60;99.90;;;;;;5029960;28;20910;-88
2023/03/23 10:06:31;;;;;;;7.10;6.40;;;12.60;99.90;;;;;;5029926;28;20503;-88
2023/03/23 10:09:01;;;;;;;6.73;6.13;;;12.60;99.90;;;;;;5030436;28;20520;-88
2023/03/23 10:11:35;;;;;;;6.90;6.20;;;12.70;99.90;;;;;;5029849;28;20499;-87
2023/03/23 10:14:16;;;;;;;7.37;6.67;;;12.70;99.90;;;;;;5029760;28;20451;-88
2023/03/23 10:16:52;;;;;;;8.13;7.33;;;12.70;99.90;;;;;;5029981;28;20446;-88
2023/03/23 10:19:25;;;;;;;6.97;6.37;;;12.70;99.90;;;;;;5032617;28;20498;-88
2023/03/23 10:21:58;;;;;;;8.03;7.20;;;12.70;99.90;;;;;;5029207;28;20561;-88
2023/03/23 10:24:32;;;;;;;9.17;7.63;;;12.70;99.90;;;;;;5029547;28;20557;-89
2023/03/23 10:27:04;;;;;;;7.90;7.20;;;12.80;99.90;;;;;;5029659;28;20526;-89
2023/03/23 10:29:36;;;;;;;9.50;8.10;;;12.80;99.90;;;;;;5030159;28;20498;-88
2023/03/23 10:32:11;;;;;;;8.87;8.07;;;12.90;99.90;;;;;;5029109;28;20504;-89
2023/03/23 10:34:44;;;;;;;9.30;7.77;;;12.90;99.90;;;;;;5029469;28;21002;-89
2023/03/23 10:37:15;;;;;;;8.20;7.40;;;13.00;99.90;;;;;;5042672;28;20453;-88
2023/03/23 10:39:49;;;;;;;8.00;7.20;;;13.00;99.90;;;;;;5039084;28;20463;-88
2023/03/23 10:42:23;;;;;;;10.03;8.70;;;13.20;99.90;;;;;;5028241;28;20508;-87
2023/03/23 10:44:50;;;;;;;8.47;7.50;;;13.20;99.90;;;;;;5035895;28;20479;-89
2023/03/23 10:47:17;;;;;;;8.67;7.87;;;13.20;99.90;;;;;;5045882;28;20456;-89
2023/03/23 10:49:48;;;;;;;9.37;8.03;;;13.30;99.90;;;;;;5048990;28;20454;-90
2023/03/23 10:52:29;;;;;;;8.87;7.97;;;13.50;99.90;;;;;;5040254;28;20507;-89
2023/03/23 10:54:58;;;;;;;7.90;7.07;;;13.70;99.90;;;;;;5053950;28;20489;-89
2023/03/23 10:57:28;;;;;;;11.03;7.43;;;13.60;99.90;;;;;;5073559;28;20442;-88
2023/03/23 11:00:01;;;;;;;8.23;6.70;;;13.80;99.90;;;;;;5067679;28;21035;-90
2023/03/23 11:02:31;;;;;;;8.57;7.50;;;13.90;99.90;;;;;;5061821;28;20444;-89
2023/03/23 11:05:03;;;;;;;9.30;8.40;;;14.00;99.90;;;;;;5059661;28;20456;-90
2023/03/23 11:07:34;;;;;;;9.00;8.20;;;14.00;99.90;;;;;;5058212;28;20444;-89
2023/03/23 11:10:19;;;;;;;8.67;7.87;;;14.10;99.90;;;;;;5043078;28;20470;-90
2023/03/23 11:13:00;;;;;;;8.67;7.87;;;14.10;99.90;;;;;;5051076;28;20453;-89
2023/03/23 11:15:30;;;;;;;10.50;8.07;;;14.20;99.90;;;;;;5053060;28;20454;-90
2023/03/23 11:18:02;;;;;;;8.63;7.83;;;14.00;99.90;;;;;;5057591;28;20453;-90
2023/03/23 11:20:35;;;;;;;8.07;7.37;;;14.00;99.90;;;;;;5056507;28;20484;-91
2023/03/23 11:23:16;;;;;;;9.60;8.70;;;14.10;99.90;;;;;;5054128;28;20576;-88
2023/03/23 11:26:14;;;;;;;13.40;8.43;;;14.00;99.90;;;;;;5051059;28;20490;-89
2023/03/23 11:28:50;;;;;;;8.30;7.50;;;14.30;99.90;;;;;;5054179;28;20552;-90
2023/03/23 11:31:23;;;;;;;8.93;8.17;;;14.20;99.90;;;;;;5051467;28;20454;-90
2023/03/23 11:34:01;;;;;;;8.80;8.00;;;14.40;99.90;;;;;;5050909;28;20438;-90
2023/03/23 11:36:40;;;;;;;9.60;8.63;;;14.50;99.90;;;;;;5057466;28;20849;-90
2023/03/23 11:39:25;;;;;;;9.20;8.40;;;14.40;99.90;;;;;;5052097;28;20458;-90
2023/03/23 11:41:55;;;;;;;9.03;7.60;;;14.50;99.90;;;;;;5055669;28;20448;-90
2023/03/23 11:44:23;;;;;;;9.80;8.40;;;14.60;99.90;;;;;;5059492;28;21082;-89
2023/03/23 11:47:09;;;;;;;7.63;6.83;;;14.80;99.90;;;;;;5052796;28;20454;-90
2023/03/23 11:49:46;;;;;;;9.27;8.30;;;15.00;99.90;;;;;;5053786;28;20473;-90
2023/03/23 11:52:31;;;;;;;7.87;6.90;;;14.90;99.90;;;;;;5055858;28;20495;-89
2023/03/23 11:55:09;;;;;;;8.53;7.67;;;14.90;99.90;;;;;;5043256;22;20523;-49
2023/03/23 11:57:36;;;;;;;9.30;8.30;;;14.80;99.90;;;;;;5049038;28;20450;-50
2023/03/23 12:00:12;;;;;;;9.47;8.57;;;14.70;99.90;;;;;;5045965;28;20437;-50
2023/03/23 12:03:02;;;;;;;8.30;7.50;;;14.80;99.90;;;;;;5050389;28;20680;-50
2023/03/23 12:05:43;;;;;;;10.30;9.30;;;14.90;99.90;;;;;;5044991;28;20799;-50
2023/03/23 12:08:25;;;;;;;10.20;8.30;;;14.80;99.90;;;;;;5081597;22;20218;-58
2023/03/23 12:11:00;;;;;;;8.73;7.67;;;14.80;99.90;;;;;;5063670;28;20951;-58
2023/03/23 12:13:52;;;;;;;11.50;7.87;;;14.80;99.90;;;;;;5072784;28;20519;-58
2023/03/23 12:16:24;;;;;;;8.10;7.30;;;14.80;99.90;;;;;;5072758;28;20444;-59
2023/03/23 12:18:59;;;;;;;9.10;7.97;;;14.80;99.90;;;;;;5073505;28;20496;-59
2023/03/23 12:21:36;;;;;;;9.70;8.90;;;14.80;99.90;;;;;;5073049;28;20441;-59
2023/03/23 12:24:15;;;;;;;8.80;8.00;;;14.80;99.90;;;;;;5073162;28;20565;-59
2023/03/23 12:26:51;;;;;;;12.27;7.70;;;14.80;99.90;;;;;;5073257;28;21022;-59
2023/03/23 12:29:57;;;;;;;9.30;8.40;;;14.80;99.90;;;;;;5073462;28;20451;-60
2023/03/23 12:32:43;;;;;;;10.23;9.10;;;14.80;99.90;;;;;;5047946;28;20458;-59
2023/03/23 12:35:23;;;;;;;18.10;8.97;;;14.90;99.90;;;;;;5073454;28;20436;-59
2023/03/23 12:38:00;;;;;;;13.50;8.70;;;15.00;99.90;;;;;;5039046;28;20482;-58
2023/03/23 12:40:49;;;;;;;8.83;8.00;;;15.20;99.90;;;;;;5030350;28;20450;-59
2023/03/23 12:43:24;;;;;;;12.97;9.00;;;14.90;99.90;;;;;;5032338;28;20483;-59
2023/03/23 12:46:04;;;;;;;12.23;9.93;;;14.70;99.90;;;;;;5049772;28;21029;-59
2023/03/23 12:48:35;;;;;;;9.37;8.47;;;14.90;99.90;;;;;;5049964;28;20495;-59
2023/03/23 12:51:13;;;;;;;9.20;7.93;;;14.80;99.90;;;;;;5039549;28;20482;-58
2023/03/23 12:53:49;;;;;;;10.57;9.33;;;15.00;99.90;;;;;;5037183;28;20527;-59
2023/03/23 12:56:20;;;;;;;12.00;9.70;;;15.00;99.90;;;;;;5037042;28;20581;-59
2023/03/23 12:58:54;;;;;;;9.20;8.30;;;14.90;99.90;;;;;;5037801;28;20509;-59
2023/03/23 13:01:25;;;;;;;14.73;13.13;;;15.00;99.90;;;;;;5032130;28;20548;-59
2023/03/23 13:03:58;;;;;;;16.00;10.47;;;15.30;99.90;;;;;;5033831;28;21029;-59
2023/03/23 13:06:30;;;;;;;10.20;9.40;;;15.40;99.90;;;;;;5027058;28;20443;-59
2023/03/23 13:09:02;;;;;;;10.70;9.60;;;15.50;99.90;;;;;;5037631;28;20483;-59
2023/03/23 13:11:34;;;;;;;10.90;9.80;;;15.50;99.90;;;;;;5029207;28;20446;-59